sensor_id;sensor_type;location;lat;lon;timestamp;P1;durP1;ratioP1;P2;durP2;ratioP2
37891;SDS011;45797;47.466;9.486;2023-05-10T00:04:29;1.67;;;0.30;;
37891;SDS011;45797;47.466;9.486;2023-05-10T00:19:51;0.50;;;0.30;;
37891;SDS011;45797;47.466;9.486;2023-05-10T00:35:14;0.40;;;0.30;;
37891;SDS011;45797;47.466;9.486;2023-05-10T00:40:14;0.30;;;0.30;;
37891;SDS011;45797;47.466;9.486;2023-05-10T00:45:19;0.40;;;0.30;;
37891;SDS011;45797;47.466;9.486;2023-05-10T00:50:31;0.38;;;0.30;;
37891;SDS011;45797;47.466;9.486;2023-05-10T00:55:33;2.85;;;0.40;;
37891;SDS011;45797;47.466;9.486;2023-05-10T01:00:34;0.43;;;0.30;;
37891;SDS011;45797;47.466;9.486;2023-05-10T01:05:35;2.70;;;0.45;;
37891;SDS011;45797;47.466;9.486;2023-05-10T01:10:36;0.38;;;0.28;;
37891;SDS011;45797;47.466;9.486;2023-05-10T01:15:38;1.00;;;0.40;;
37891;SDS011;45797;47.466;9.486;2023-05-10T01:20:41;0.45;;;0.30;;
37891;SDS011;45797;47.466;9.486;2023-05-10T01:41:55;1.50;;;0.40;;
37891;SDS011;45797;47.466;9.486;2023-05-10T01:47:14;1.95;;;0.50;;
37891;SDS011;45797;47.466;9.486;2023-05-10T01:52:36;0.50;;;0.40;;
37891;SDS011;45797;47.466;9.486;2023-05-10T01:57:48;0.88;;;0.30;;
37891;SDS011;45797;47.466;9.486;2023-05-10T02:13:36;0.82;;;0.43;;
37891;SDS011;45797;47.466;9.486;2023-05-10T02:23:44;0.70;;;0.40;;
37891;SDS011;45797;47.466;9.486;2023-05-10T02:28:55;0.43;;;0.30;;
37891;SDS011;45797;47.466;9.486;2023-05-10T02:33:59;1.52;;;0.43;;
37891;SDS011;45797;47.466;9.486;2023-05-10T02:39:11;2.45;;;0.50;;
37891;SDS011;45797;47.466;9.486;2023-05-10T02:44:14;1.30;;;0.50;;
37891;SDS011;45797;47.466;9.486;2023-05-10T02:49:16;0.98;;;0.47;;
37891;SDS011;45797;47.466;9.486;2023-05-10T02:54:27;1.45;;;0.70;;
37891;SDS011;45797;47.466;9.486;2023-05-10T03:04:56;0.68;;;0.43;;
37891;SDS011;45797;47.466;9.486;2023-05-10T03:09:58;0.85;;;0.40;;
37891;SDS011;45797;47.466;9.486;2023-05-10T03:25:48;1.02;;;0.55;;
37891;SDS011;45797;47.466;9.486;2023-05-10T03:31:00;1.65;;;0.63;;
37891;SDS011;45797;47.466;9.486;2023-05-10T03:36:05;1.05;;;0.50;;
37891;SDS011;45797;47.466;9.486;2023-05-10T03:41:08;1.20;;;0.50;;
37891;SDS011;45797;47.466;9.486;2023-05-10T03:46:09;1.02;;;0.50;;
37891;SDS011;45797;47.466;9.486;2023-05-10T03:51:10;1.70;;;0.60;;
37891;SDS011;45797;47.466;9.486;2023-05-10T03:56:15;7.43;;;0.77;;
37891;SDS011;45797;47.466;9.486;2023-05-10T04:01:16;1.98;;;0.60;;
37891;SDS011;45797;47.466;9.486;2023-05-10T04:06:16;1.05;;;0.55;;
37891;SDS011;45797;47.466;9.486;2023-05-10T04:11:18;1.33;;;0.60;;
37891;SDS011;45797;47.466;9.486;2023-05-10T04:16:19;1.50;;;0.50;;
37891;SDS011;45797;47.466;9.486;2023-05-10T04:26:27;1.48;;;0.70;;
37891;SDS011;45797;47.466;9.486;2023-05-10T04:31:27;1.50;;;0.60;;
37891;SDS011;45797;47.466;9.486;2023-05-10T04:41:32;2.28;;;0.77;;
37891;SDS011;45797;47.466;9.486;2023-05-10T04:46:43;1.50;;;0.70;;
37891;SDS011;45797;47.466;9.486;2023-05-10T04:51:43;1.23;;;0.60;;
37891;SDS011;45797;47.466;9.486;2023-05-10T04:56:50;2.15;;;0.63;;
37891;SDS011;45797;47.466;9.486;2023-05-10T05:01:50;1.00;;;0.55;;
37891;SDS011;45797;47.466;9.486;2023-05-10T05:06:59;1.02;;;0.40;;
37891;SDS011;45797;47.466;9.486;2023-05-10T05:12:05;1.98;;;0.60;;
37891;SDS011;45797;47.466;9.486;2023-05-10T05:17:07;1.02;;;0.50;;
37891;SDS011;45797;47.466;9.486;2023-05-10T05:27:12;0.93;;;0.50;;
37891;SDS011;45797;47.466;9.486;2023-05-10T05:32:24;1.10;;;0.60;;
37891;SDS011;45797;47.466;9.486;2023-05-10T05:37:25;2.60;;;0.60;;
37891;SDS011;45797;47.466;9.486;2023-05-10T05:42:27;1.67;;;0.70;;
37891;SDS011;45797;47.466;9.486;2023-05-10T05:47:34;1.15;;;0.60;;
37891;SDS011;45797;47.466;9.486;2023-05-10T05:52:37;2.47;;;0.60;;
37891;SDS011;45797;47.466;9.486;2023-05-10T05:57:48;1.20;;;0.70;;
37891;SDS011;45797;47.466;9.486;2023-05-10T06:02:49;1.67;;;0.70;;
37891;SDS011;45797;47.466;9.486;2023-05-10T06:07:49;3.38;;;0.68;;
37891;SDS011;45797;47.466;9.486;2023-05-10T06:12:51;2.85;;;0.60;;
37891;SDS011;45797;47.466;9.486;2023-05-10T06:17:52;1.40;;;0.70;;
37891;SDS011;45797;47.466;9.486;2023-05-10T06:22:52;1.65;;;0.70;;
37891;SDS011;45797;47.466;9.486;2023-05-10T06:27:53;1.48;;;0.77;;
37891;SDS011;45797;47.466;9.486;2023-05-10T06:33:05;1.27;;;0.63;;
37891;SDS011;45797;47.466;9.486;2023-05-10T06:38:06;1.40;;;0.60;;
37891;SDS011;45797;47.466;9.486;2023-05-10T06:43:08;0.77;;;0.43;;
37891;SDS011;45797;47.466;9.486;2023-05-10T06:48:10;1.60;;;0.73;;
37891;SDS011;45797;47.466;9.486;2023-05-10T06:53:12;0.95;;;0.50;;
37891;SDS011;45797;47.466;9.486;2023-05-10T06:58:13;0.85;;;0.47;;
37891;SDS011;45797;47.466;9.486;2023-05-10T07:03:16;0.98;;;0.60;;
37891;SDS011;45797;47.466;9.486;2023-05-10T07:08:17;0.95;;;0.50;;
37891;SDS011;45797;47.466;9.486;2023-05-10T07:13:17;0.70;;;0.45;;
37891;SDS011;45797;47.466;9.486;2023-05-10T07:18:25;1.55;;;0.40;;
37891;SDS011;45797;47.466;9.486;2023-05-10T07:23:25;0.85;;;0.50;;
37891;SDS011;45797;47.466;9.486;2023-05-10T07:33:37;1.80;;;0.60;;
37891;SDS011;45797;47.466;9.486;2023-05-10T07:43:43;0.65;;;0.38;;
37891;SDS011;45797;47.466;9.486;2023-05-10T07:48:43;0.95;;;0.45;;
37891;SDS011;45797;47.466;9.486;2023-05-10T07:53:45;0.60;;;0.40;;
37891;SDS011;45797;47.466;9.486;2023-05-10T08:09:09;0.73;;;0.40;;
37891;SDS011;45797;47.466;9.486;2023-05-10T08:14:10;1.38;;;0.50;;
37891;SDS011;45797;47.466;9.486;2023-05-10T08:19:11;0.45;;;0.40;;
37891;SDS011;45797;47.466;9.486;2023-05-10T08:29:31;1.25;;;0.52;;
37891;SDS011;45797;47.466;9.486;2023-05-10T08:34:33;0.90;;;0.52;;
37891;SDS011;45797;47.466;9.486;2023-05-10T08:39:35;0.50;;;0.30;;
37891;SDS011;45797;47.466;9.486;2023-05-10T08:44:36;0.88;;;0.40;;
37891;SDS011;45797;47.466;9.486;2023-05-10T08:54:42;0.57;;;0.40;;
37891;SDS011;45797;47.466;9.486;2023-05-10T08:59:45;1.58;;;0.50;;
37891;SDS011;45797;47.466;9.486;2023-05-10T09:04:45;0.85;;;0.40;;
37891;SDS011;45797;47.466;9.486;2023-05-10T09:09:51;0.65;;;0.32;;
37891;SDS011;45797;47.466;9.486;2023-05-10T09:14:53;1.30;;;0.47;;
37891;SDS011;45797;47.466;9.486;2023-05-10T09:25:14;1.30;;;0.50;;
37891;SDS011;45797;47.466;9.486;2023-05-10T09:30:26;0.77;;;0.40;;
37891;SDS011;45797;47.466;9.486;2023-05-10T09:35:31;3.03;;;0.57;;
37891;SDS011;45797;47.466;9.486;2023-05-10T09:40:33;1.23;;;0.70;;
37891;SDS011;45797;47.466;9.486;2023-05-10T09:45:43;2.40;;;0.70;;
37891;SDS011;45797;47.466;9.486;2023-05-10T09:50:43;3.20;;;0.70;;
37891;SDS011;45797;47.466;9.486;2023-05-10T09:55:45;1.30;;;0.70;;
37891;SDS011;45797;47.466;9.486;2023-05-10T10:00:46;1.40;;;0.70;;
37891;SDS011;45797;47.466;9.486;2023-05-10T10:05:54;1.63;;;0.68;;
37891;SDS011;45797;47.466;9.486;2023-05-10T10:10:55;1.95;;;0.90;;
37891;SDS011;45797;47.466;9.486;2023-05-10T10:15:57;1.05;;;0.50;;
37891;SDS011;45797;47.466;9.486;2023-05-10T10:20:59;1.13;;;0.57;;
37891;SDS011;45797;47.466;9.486;2023-05-10T10:26:02;1.20;;;0.55;;
37891;SDS011;45797;47.466;9.486;2023-05-10T10:31:27;1.30;;;0.50;;
37891;SDS011;45797;47.466;9.486;2023-05-10T10:36:25;0.98;;;0.47;;
37891;SDS011;45797;47.466;9.486;2023-05-10T10:52:32;2.60;;;0.70;;
37891;SDS011;45797;47.466;9.486;2023-05-10T11:03:05;2.15;;;0.75;;
37891;SDS011;45797;47.466;9.486;2023-05-10T11:13:32;1.27;;;0.60;;
37891;SDS011;45797;47.466;9.486;2023-05-10T11:18:36;2.03;;;0.80;;
37891;SDS011;45797;47.466;9.486;2023-05-10T11:28:48;1.90;;;0.80;;
37891;SDS011;45797;47.466;9.486;2023-05-10T11:44:14;2.25;;;0.70;;
37891;SDS011;45797;47.466;9.486;2023-05-10T11:49:15;2.95;;;0.85;;
37891;SDS011;45797;47.466;9.486;2023-05-10T11:59:32;2.72;;;0.73;;
37891;SDS011;45797;47.466;9.486;2023-05-10T12:04:32;1.48;;;0.70;;
37891;SDS011;45797;47.466;9.486;2023-05-10T12:15:22;1.23;;;0.63;;
37891;SDS011;45797;47.466;9.486;2023-05-10T12:20:26;1.75;;;0.85;;
37891;SDS011;45797;47.466;9.486;2023-05-10T12:25:30;1.67;;;0.80;;
37891;SDS011;45797;47.466;9.486;2023-05-10T12:30:36;1.60;;;0.70;;
37891;SDS011;45797;47.466;9.486;2023-05-10T12:35:48;1.15;;;0.60;;
37891;SDS011;45797;47.466;9.486;2023-05-10T12:40:55;1.60;;;0.77;;
37891;SDS011;45797;47.466;9.486;2023-05-10T12:45:56;1.27;;;0.60;;
37891;SDS011;45797;47.466;9.486;2023-05-10T12:50:57;1.52;;;0.77;;
37891;SDS011;45797;47.466;9.486;2023-05-10T12:56:04;1.27;;;0.55;;
37891;SDS011;45797;47.466;9.486;2023-05-10T13:01:06;1.75;;;0.80;;
37891;SDS011;45797;47.466;9.486;2023-05-10T13:06:10;1.58;;;0.70;;
37891;SDS011;45797;47.466;9.486;2023-05-10T13:11:10;1.17;;;0.52;;
37891;SDS011;45797;47.466;9.486;2023-05-10T13:16:12;5.43;;;0.70;;
37891;SDS011;45797;47.466;9.486;2023-05-10T13:21:26;2.75;;;0.73;;
37891;SDS011;45797;47.466;9.486;2023-05-10T13:26:26;2.40;;;0.60;;
37891;SDS011;45797;47.466;9.486;2023-05-10T13:31:35;1.52;;;0.65;;
37891;SDS011;45797;47.466;9.486;2023-05-10T13:36:36;2.70;;;0.68;;
37891;SDS011;45797;47.466;9.486;2023-05-10T13:41:36;1.65;;;0.60;;
37891;SDS011;45797;47.466;9.486;2023-05-10T13:51:42;1.90;;;0.60;;
37891;SDS011;45797;47.466;9.486;2023-05-10T13:56:44;2.28;;;0.70;;
37891;SDS011;45797;47.466;9.486;2023-05-10T14:06:49;1.35;;;0.57;;
37891;SDS011;45797;47.466;9.486;2023-05-10T14:11:51;1.17;;;0.60;;
37891;SDS011;45797;47.466;9.486;2023-05-10T14:21:54;1.90;;;0.77;;
37891;SDS011;45797;47.466;9.486;2023-05-10T14:26:55;0.98;;;0.52;;
37891;SDS011;45797;47.466;9.486;2023-05-10T14:31:55;2.70;;;0.60;;
37891;SDS011;45797;47.466;9.486;2023-05-10T14:36:57;1.63;;;0.70;;
37891;SDS011;45797;47.466;9.486;2023-05-10T14:41:57;1.95;;;0.90;;
37891;SDS011;45797;47.466;9.486;2023-05-10T14:46:59;1.33;;;0.55;;
37891;SDS011;45797;47.466;9.486;2023-05-10T14:52:00;2.25;;;0.90;;
37891;SDS011;45797;47.466;9.486;2023-05-10T14:57:02;1.42;;;0.70;;
37891;SDS011;45797;47.466;9.486;2023-05-10T15:02:05;1.52;;;0.70;;
37891;SDS011;45797;47.466;9.486;2023-05-10T15:07:14;1.42;;;0.75;;
37891;SDS011;45797;47.466;9.486;2023-05-10T15:12:17;1.50;;;0.70;;
37891;SDS011;45797;47.466;9.486;2023-05-10T15:22:24;1.38;;;0.68;;
37891;SDS011;45797;47.466;9.486;2023-05-10T15:27:24;1.67;;;0.70;;
37891;SDS011;45797;47.466;9.486;2023-05-10T15:32:26;1.40;;;0.70;;
37891;SDS011;45797;47.466;9.486;2023-05-10T15:37:26;1.52;;;0.75;;
37891;SDS011;45797;47.466;9.486;2023-05-10T15:42:28;1.50;;;0.70;;
37891;SDS011;45797;47.466;9.486;2023-05-10T15:47:29;1.58;;;0.75;;
37891;SDS011;45797;47.466;9.486;2023-05-10T15:52:31;1.77;;;0.77;;
37891;SDS011;45797;47.466;9.486;2023-05-10T15:57:40;1.85;;;0.70;;
37891;SDS011;45797;47.466;9.486;2023-05-10T16:02:42;2.95;;;0.90;;
37891;SDS011;45797;47.466;9.486;2023-05-10T16:07:42;4.97;;;1.00;;
37891;SDS011;45797;47.466;9.486;2023-05-10T16:12:42;2.42;;;0.90;;
37891;SDS011;45797;47.466;9.486;2023-05-10T16:22:48;1.80;;;0.80;;
37891;SDS011;45797;47.466;9.486;2023-05-10T16:27:49;1.55;;;0.80;;
37891;SDS011;45797;47.466;9.486;2023-05-10T16:32:50;2.65;;;0.85;;
37891;SDS011;45797;47.466;9.486;2023-05-10T16:37:57;2.03;;;0.75;;
37891;SDS011;45797;47.466;9.486;2023-05-10T16:43:07;2.30;;;0.70;;
37891;SDS011;45797;47.466;9.486;2023-05-10T16:48:07;2.30;;;0.80;;
37891;SDS011;45797;47.466;9.486;2023-05-10T16:53:08;3.72;;;0.80;;
37891;SDS011;45797;47.466;9.486;2023-05-10T16:58:15;1.90;;;0.80;;
37891;SDS011;45797;47.466;9.486;2023-05-10T17:03:16;1.95;;;0.77;;
37891;SDS011;45797;47.466;9.486;2023-05-10T17:08:16;1.40;;;0.70;;
37891;SDS011;45797;47.466;9.486;2023-05-10T17:13:18;1.40;;;0.65;;
37891;SDS011;45797;47.466;9.486;2023-05-10T17:18:18;3.22;;;0.80;;
37891;SDS011;45797;47.466;9.486;2023-05-10T17:23:19;1.98;;;0.60;;
37891;SDS011;45797;47.466;9.486;2023-05-10T17:28:20;1.10;;;0.60;;
37891;SDS011;45797;47.466;9.486;2023-05-10T17:38:26;5.13;;;1.00;;
37891;SDS011;45797;47.466;9.486;2023-05-10T17:43:29;2.38;;;0.75;;
37891;SDS011;45797;47.466;9.486;2023-05-10T17:48:30;1.65;;;0.70;;
37891;SDS011;45797;47.466;9.486;2023-05-10T17:58:35;3.92;;;0.80;;
37891;SDS011;45797;47.466;9.486;2023-05-10T18:03:39;1.40;;;0.63;;
37891;SDS011;45797;47.466;9.486;2023-05-10T18:08:39;1.20;;;0.50;;
37891;SDS011;45797;47.466;9.486;2023-05-10T18:13:40;1.45;;;0.60;;
37891;SDS011;45797;47.466;9.486;2023-05-10T18:18:43;1.15;;;0.50;;
37891;SDS011;45797;47.466;9.486;2023-05-10T18:23:44;2.42;;;0.75;;
37891;SDS011;45797;47.466;9.486;2023-05-10T18:28:45;2.53;;;0.50;;
37891;SDS011;45797;47.466;9.486;2023-05-10T18:33:52;0.95;;;0.50;;
37891;SDS011;45797;47.466;9.486;2023-05-10T18:39:02;0.70;;;0.40;;
37891;SDS011;45797;47.466;9.486;2023-05-10T18:44:04;1.02;;;0.60;;
37891;SDS011;45797;47.466;9.486;2023-05-10T18:49:11;0.70;;;0.40;;
37891;SDS011;45797;47.466;9.486;2023-05-10T18:59:14;1.33;;;0.50;;
37891;SDS011;45797;47.466;9.486;2023-05-10T19:09:18;1.38;;;0.40;;
37891;SDS011;45797;47.466;9.486;2023-05-10T19:14:20;1.20;;;0.50;;
37891;SDS011;45797;47.466;9.486;2023-05-10T19:19:21;1.33;;;0.50;;
37891;SDS011;45797;47.466;9.486;2023-05-10T19:24:23;2.95;;;0.50;;
37891;SDS011;45797;47.466;9.486;2023-05-10T19:34:45;0.73;;;0.50;;
37891;SDS011;45797;47.466;9.486;2023-05-10T19:44:56;1.20;;;0.52;;
37891;SDS011;45797;47.466;9.486;2023-05-10T19:49:57;0.77;;;0.50;;
37891;SDS011;45797;47.466;9.486;2023-05-10T19:54:59;1.00;;;0.55;;
37891;SDS011;45797;47.466;9.486;2023-05-10T20:00:00;1.20;;;0.50;;
37891;SDS011;45797;47.466;9.486;2023-05-10T20:05:02;0.93;;;0.50;;
37891;SDS011;45797;47.466;9.486;2023-05-10T20:10:03;1.80;;;0.50;;
37891;SDS011;45797;47.466;9.486;2023-05-10T20:15:04;1.75;;;0.50;;
37891;SDS011;45797;47.466;9.486;2023-05-10T20:20:08;0.88;;;0.50;;
37891;SDS011;45797;47.466;9.486;2023-05-10T20:30:13;0.98;;;0.47;;
37891;SDS011;45797;47.466;9.486;2023-05-10T20:35:14;1.30;;;0.60;;
37891;SDS011;45797;47.466;9.486;2023-05-10T20:40:16;1.38;;;0.70;;
37891;SDS011;45797;47.466;9.486;2023-05-10T20:45:18;3.30;;;0.60;;
37891;SDS011;45797;47.466;9.486;2023-05-10T20:50:18;2.13;;;0.60;;
37891;SDS011;45797;47.466;9.486;2023-05-10T20:55:19;1.00;;;0.50;;
37891;SDS011;45797;47.466;9.486;2023-05-10T21:00:20;1.58;;;0.60;;
37891;SDS011;45797;47.466;9.486;2023-05-10T21:05:22;0.85;;;0.50;;
37891;SDS011;45797;47.466;9.486;2023-05-10T21:10:24;1.02;;;0.50;;
37891;SDS011;45797;47.466;9.486;2023-05-10T21:15:27;1.33;;;0.60;;
37891;SDS011;45797;47.466;9.486;2023-05-10T21:20:27;1.20;;;0.50;;
37891;SDS011;45797;47.466;9.486;2023-05-10T21:25:28;1.02;;;0.50;;
37891;SDS011;45797;47.466;9.486;2023-05-10T21:30:28;2.22;;;0.60;;
37891;SDS011;45797;47.466;9.486;2023-05-10T21:35:30;1.38;;;0.45;;
37891;SDS011;45797;47.466;9.486;2023-05-10T21:40:30;0.60;;;0.40;;
37891;SDS011;45797;47.466;9.486;2023-05-10T21:45:30;0.47;;;0.40;;
37891;SDS011;45797;47.466;9.486;2023-05-10T22:05:49;1.08;;;0.55;;
37891;SDS011;45797;47.466;9.486;2023-05-10T22:10:50;1.10;;;0.57;;
37891;SDS011;45797;47.466;9.486;2023-05-10T22:15:52;1.35;;;0.50;;
37891;SDS011;45797;47.466;9.486;2023-05-10T22:20:53;0.75;;;0.43;;
37891;SDS011;45797;47.466;9.486;2023-05-10T22:26:04;0.90;;;0.50;;
37891;SDS011;45797;47.466;9.486;2023-05-10T22:31:09;3.80;;;0.68;;
37891;SDS011;45797;47.466;9.486;2023-05-10T22:36:12;1.23;;;0.50;;
37891;SDS011;45797;47.466;9.486;2023-05-10T22:41:14;1.08;;;0.65;;
37891;SDS011;45797;47.466;9.486;2023-05-10T22:51:26;1.45;;;0.60;;
37891;SDS011;45797;47.466;9.486;2023-05-10T22:56:33;1.00;;;0.52;;
37891;SDS011;45797;47.466;9.486;2023-05-10T23:01:43;0.93;;;0.50;;
37891;SDS011;45797;47.466;9.486;2023-05-10T23:11:50;0.55;;;0.30;;
37891;SDS011;45797;47.466;9.486;2023-05-10T23:16:57;1.27;;;0.63;;
37891;SDS011;45797;47.466;9.486;2023-05-10T23:21:59;1.02;;;0.50;;
37891;SDS011;45797;47.466;9.486;2023-05-10T23:27:01;0.85;;;0.47;;
37891;SDS011;45797;47.466;9.486;2023-05-10T23:32:11;0.70;;;0.47;;
37891;SDS011;45797;47.466;9.486;2023-05-10T23:37:21;1.00;;;0.40;;
37891;SDS011;45797;47.466;9.486;2023-05-10T23:42:23;2.78;;;0.40;;
37891;SDS011;45797;47.466;9.486;2023-05-10T23:47:24;0.80;;;0.47;;
37891;SDS011;45797;47.466;9.486;2023-05-10T23:52:32;0.80;;;0.50;;
37891;SDS011;45797;47.466;9.486;2023-05-10T23:57:33;0.98;;;0.47;;
